Impacts TAF Board
For situational awareness. Not to be used for flight planning purposes.
IDs:

KDEN - Denver Intl, CO, US

Issued at 1505 UTC 20 Nov 2018
Updated at 1626 UTC 20 Nov 2018
Potential Impact None Slight Moderate High
Time<<21/17Z 21/18Z 21/19Z 21/20Z 21/21Z 21/22Z 21/23Z 22/00Z 22/01Z 22/02Z 22/03Z 22/04Z 22/05Z
Type PRVL
VIS >6
CIG --
Cover SKC
FltCat VFR
WX --
WDir 250
WSpd 5
WGst --
Raw TAF
KDEN 201505Z 2015/2118 21005KT P6SM SKC
  FM201800 16005KT P6SM SKC
  FM202100 11007KT P6SM SKC
  FM210200 16007KT P6SM SKC
  FM210500 21009KT P6SM SKC
  FM211600 25005KT P6SM SKC


METAR Board
Radar Display
Forecast Discussion
For situational awareness. Not to be used for flight planning purposes.